sensor_id;sensor_type;location;lat;lon;timestamp;P1;durP1;ratioP1;P2;durP2;ratioP2
67712;SDS011;54503;55.784;49.138;2022-08-21T00:04:42;20.02;;;6.85;;
67712;SDS011;54503;55.784;49.138;2022-08-21T00:09:48;20.90;;;7.20;;
67712;SDS011;54503;55.784;49.138;2022-08-21T00:15:08;19.80;;;6.60;;
67712;SDS011;54503;55.784;49.138;2022-08-21T00:20:28;18.12;;;6.85;;
67712;SDS011;54503;55.784;49.138;2022-08-21T00:25:47;19.70;;;6.35;;
67712;SDS011;54503;55.784;49.138;2022-08-21T00:31:06;18.62;;;5.70;;
67712;SDS011;54503;55.784;49.138;2022-08-21T00:36:12;17.10;;;5.30;;
67712;SDS011;54503;55.784;49.138;2022-08-21T00:41:31;20.20;;;5.33;;
67712;SDS011;54503;55.784;49.138;2022-08-21T00:46:36;16.30;;;5.42;;
67712;SDS011;54503;55.784;49.138;2022-08-21T01:03:01;14.30;;;5.87;;
67712;SDS011;54503;55.784;49.138;2022-08-21T01:08:21;18.80;;;6.20;;
67712;SDS011;54503;55.784;49.138;2022-08-21T01:13:28;17.02;;;5.65;;
67712;SDS011;54503;55.784;49.138;2022-08-21T01:18:34;17.77;;;5.53;;
67712;SDS011;54503;55.784;49.138;2022-08-21T01:23:52;12.47;;;5.00;;
67712;SDS011;54503;55.784;49.138;2022-08-21T01:34:17;20.20;;;5.40;;
67712;SDS011;54503;55.784;49.138;2022-08-21T01:39:22;17.90;;;5.50;;
67712;SDS011;54503;55.784;49.138;2022-08-21T01:44:43;13.03;;;5.53;;
67712;SDS011;54503;55.784;49.138;2022-08-21T01:50:04;13.35;;;5.50;;
67712;SDS011;54503;55.784;49.138;2022-08-21T01:55:23;19.97;;;5.63;;
67712;SDS011;54503;55.784;49.138;2022-08-21T02:00:42;12.13;;;5.47;;
67712;SDS011;54503;55.784;49.138;2022-08-21T02:05:47;12.93;;;5.13;;
67712;SDS011;54503;55.784;49.138;2022-08-21T02:10:53;19.07;;;5.45;;
67712;SDS011;54503;55.784;49.138;2022-08-21T02:15:59;15.93;;;5.20;;
67712;SDS011;54503;55.784;49.138;2022-08-21T02:21:16;17.40;;;5.35;;
67712;SDS011;54503;55.784;49.138;2022-08-21T02:26:21;16.75;;;5.10;;
67712;SDS011;54503;55.784;49.138;2022-08-21T02:31:48;15.90;;;4.30;;
67712;SDS011;54503;55.784;49.138;2022-08-21T02:36:53;17.75;;;5.37;;
67712;SDS011;54503;55.784;49.138;2022-08-21T02:42:18;24.27;;;5.03;;
67712;SDS011;54503;55.784;49.138;2022-08-21T02:47:23;10.55;;;4.10;;
67712;SDS011;54503;55.784;49.138;2022-08-21T02:52:45;14.65;;;4.60;;
67712;SDS011;54503;55.784;49.138;2022-08-21T02:58:25;15.38;;;4.72;;
67712;SDS011;54503;55.784;49.138;2022-08-21T03:03:30;15.80;;;3.77;;
67712;SDS011;54503;55.784;49.138;2022-08-21T03:09:00;15.85;;;4.00;;
67712;SDS011;54503;55.784;49.138;2022-08-21T03:14:05;12.05;;;4.12;;
67712;SDS011;54503;55.784;49.138;2022-08-21T03:19:37;16.23;;;4.00;;
67712;SDS011;54503;55.784;49.138;2022-08-21T03:24:42;15.53;;;5.17;;
67712;SDS011;54503;55.784;49.138;2022-08-21T03:30:02;16.27;;;4.37;;
67712;SDS011;54503;55.784;49.138;2022-08-21T03:35:22;11.77;;;4.10;;
67712;SDS011;54503;55.784;49.138;2022-08-21T03:40:41;16.50;;;4.57;;
67712;SDS011;54503;55.784;49.138;2022-08-21T03:45:47;9.18;;;4.10;;
67712;SDS011;54503;55.784;49.138;2022-08-21T03:50:53;12.90;;;4.33;;
67712;SDS011;54503;55.784;49.138;2022-08-21T03:56:12;15.15;;;4.60;;
67712;SDS011;54503;55.784;49.138;2022-08-21T04:01:36;11.88;;;4.55;;
67712;SDS011;54503;55.784;49.138;2022-08-21T04:06:41;12.93;;;4.22;;
67712;SDS011;54503;55.784;49.138;2022-08-21T04:11:46;10.93;;;4.03;;
67712;SDS011;54503;55.784;49.138;2022-08-21T04:17:05;14.03;;;4.65;;
67712;SDS011;54503;55.784;49.138;2022-08-21T04:22:39;14.05;;;4.20;;
67712;SDS011;54503;55.784;49.138;2022-08-21T04:27:44;15.07;;;4.40;;
67712;SDS011;54503;55.784;49.138;2022-08-21T04:32:50;16.20;;;4.92;;
67712;SDS011;54503;55.784;49.138;2022-08-21T04:37:56;12.90;;;4.33;;
67712;SDS011;54503;55.784;49.138;2022-08-21T04:43:15;13.35;;;4.50;;
67712;SDS011;54503;55.784;49.138;2022-08-21T04:48:35;19.42;;;4.90;;
67712;SDS011;54503;55.784;49.138;2022-08-21T04:59:02;10.53;;;4.40;;
67712;SDS011;54503;55.784;49.138;2022-08-21T05:04:08;18.50;;;4.80;;
67712;SDS011;54503;55.784;49.138;2022-08-21T05:09:18;13.13;;;4.17;;
67712;SDS011;54503;55.784;49.138;2022-08-21T05:15:00;12.93;;;4.42;;
67712;SDS011;54503;55.784;49.138;2022-08-21T05:20:10;15.93;;;4.33;;
67712;SDS011;54503;55.784;49.138;2022-08-21T05:25:34;24.07;;;4.50;;
67712;SDS011;54503;55.784;49.138;2022-08-21T05:30:53;9.18;;;4.72;;
67712;SDS011;54503;55.784;49.138;2022-08-21T05:36:31;17.60;;;4.33;;
67712;SDS011;54503;55.784;49.138;2022-08-21T05:41:36;12.43;;;4.47;;
67712;SDS011;54503;55.784;49.138;2022-08-21T05:46:55;14.70;;;5.20;;
67712;SDS011;54503;55.784;49.138;2022-08-21T05:52:18;14.38;;;5.12;;
67712;SDS011;54503;55.784;49.138;2022-08-21T05:57:44;10.00;;;4.67;;
67712;SDS011;54503;55.784;49.138;2022-08-21T06:02:51;12.17;;;4.43;;
67712;SDS011;54503;55.784;49.138;2022-08-21T06:13:23;13.98;;;4.65;;
67712;SDS011;54503;55.784;49.138;2022-08-21T06:18:46;12.40;;;4.20;;
67712;SDS011;54503;55.784;49.138;2022-08-21T06:23:51;13.55;;;4.00;;
67712;SDS011;54503;55.784;49.138;2022-08-21T06:29:12;30.70;;;4.80;;
67712;SDS011;54503;55.784;49.138;2022-08-21T06:34:19;14.05;;;3.92;;
67712;SDS011;54503;55.784;49.138;2022-08-21T06:39:25;13.33;;;3.63;;
67712;SDS011;54503;55.784;49.138;2022-08-21T06:44:52;36.47;;;5.07;;
67712;SDS011;54503;55.784;49.138;2022-08-21T06:49:57;12.70;;;4.40;;
67712;SDS011;54503;55.784;49.138;2022-08-21T06:55:27;16.80;;;4.30;;
67712;SDS011;54503;55.784;49.138;2022-08-21T07:00:32;10.68;;;4.05;;
67712;SDS011;54503;55.784;49.138;2022-08-21T07:05:39;45.77;;;4.93;;
67712;SDS011;54503;55.784;49.138;2022-08-21T07:11:39;15.13;;;3.40;;
67712;SDS011;54503;55.784;49.138;2022-08-21T07:16:28;10.20;;;3.60;;
67712;SDS011;54503;55.784;49.138;2022-08-21T07:21:34;11.18;;;3.17;;
67712;SDS011;54503;55.784;49.138;2022-08-21T07:26:52;9.15;;;2.40;;
67712;SDS011;54503;55.784;49.138;2022-08-21T07:31:57;7.53;;;2.40;;
67712;SDS011;54503;55.784;49.138;2022-08-21T07:37:19;6.05;;;2.27;;
67712;SDS011;54503;55.784;49.138;2022-08-21T07:48:02;8.20;;;2.30;;
67712;SDS011;54503;55.784;49.138;2022-08-21T07:53:21;8.00;;;2.40;;
67712;SDS011;54503;55.784;49.138;2022-08-21T07:58:26;5.97;;;2.10;;
67712;SDS011;54503;55.784;49.138;2022-08-21T08:03:45;7.80;;;2.43;;
67712;SDS011;54503;55.784;49.138;2022-08-21T08:08:59;12.30;;;2.70;;
67712;SDS011;54503;55.784;49.138;2022-08-21T08:14:05;5.67;;;2.27;;
67712;SDS011;54503;55.784;49.138;2022-08-21T08:19:24;10.93;;;2.30;;
67712;SDS011;54503;55.784;49.138;2022-08-21T08:24:30;5.35;;;2.30;;
67712;SDS011;54503;55.784;49.138;2022-08-21T08:29:49;6.65;;;2.42;;
67712;SDS011;54503;55.784;49.138;2022-08-21T08:35:08;7.97;;;2.40;;
67712;SDS011;54503;55.784;49.138;2022-08-21T08:45:53;8.50;;;2.70;;
67712;SDS011;54503;55.784;49.138;2022-08-21T08:51:00;7.00;;;2.83;;
67712;SDS011;54503;55.784;49.138;2022-08-21T08:56:15;10.53;;;2.87;;
67712;SDS011;54503;55.784;49.138;2022-08-21T09:01:34;7.13;;;2.57;;
67712;SDS011;54503;55.784;49.138;2022-08-21T09:12:01;7.40;;;2.85;;
67712;SDS011;54503;55.784;49.138;2022-08-21T09:28:11;5.13;;;2.80;;
67712;SDS011;54503;55.784;49.138;2022-08-21T09:33:16;12.45;;;5.95;;
67712;SDS011;54503;55.784;49.138;2022-08-21T09:38:36;5.22;;;3.10;;
67712;SDS011;54503;55.784;49.138;2022-08-21T09:43:51;7.12;;;3.08;;
67712;SDS011;54503;55.784;49.138;2022-08-21T09:49:02;8.53;;;3.07;;
67712;SDS011;54503;55.784;49.138;2022-08-21T10:10:29;8.50;;;2.83;;
67712;SDS011;54503;55.784;49.138;2022-08-21T10:54:30;6.25;;;2.80;;
67712;SDS011;54503;55.784;49.138;2022-08-21T11:10:10;9.00;;;3.08;;
67712;SDS011;54503;55.784;49.138;2022-08-21T11:32:30;6.33;;;2.65;;
67712;SDS011;54503;55.784;49.138;2022-08-21T11:54:18;20.45;;;9.05;;
67712;SDS011;54503;55.784;49.138;2022-08-21T12:05:22;8.23;;;3.67;;
67712;SDS011;54503;55.784;49.138;2022-08-21T12:16:28;7.70;;;2.70;;
67712;SDS011;54503;55.784;49.138;2022-08-21T12:54:42;14.35;;;6.37;;
67712;SDS011;54503;55.784;49.138;2022-08-21T13:05:16;5.80;;;3.10;;
67712;SDS011;54503;55.784;49.138;2022-08-21T13:10:35;16.55;;;2.90;;
67712;SDS011;54503;55.784;49.138;2022-08-21T13:21:34;7.80;;;2.50;;
67712;SDS011;54503;55.784;49.138;2022-08-21T13:26:40;9.63;;;3.00;;
67712;SDS011;54503;55.784;49.138;2022-08-21T13:31:47;9.25;;;3.40;;
67712;SDS011;54503;55.784;49.138;2022-08-21T13:37:14;6.60;;;2.60;;
67712;SDS011;54503;55.784;49.138;2022-08-21T13:42:20;11.45;;;2.90;;
67712;SDS011;54503;55.784;49.138;2022-08-21T13:47:26;11.20;;;3.02;;
67712;SDS011;54503;55.784;49.138;2022-08-21T13:52:32;7.60;;;3.20;;
67712;SDS011;54503;55.784;49.138;2022-08-21T13:58:03;7.83;;;2.93;;
67712;SDS011;54503;55.784;49.138;2022-08-21T14:03:09;10.90;;;2.85;;
67712;SDS011;54503;55.784;49.138;2022-08-21T14:08:31;6.20;;;4.00;;
67712;SDS011;54503;55.784;49.138;2022-08-21T14:19:15;7.47;;;3.23;;
67712;SDS011;54503;55.784;49.138;2022-08-21T14:29:43;7.50;;;2.80;;
67712;SDS011;54503;55.784;49.138;2022-08-21T14:35:02;27.05;;;12.30;;
67712;SDS011;54503;55.784;49.138;2022-08-21T14:40:08;15.63;;;5.43;;
67712;SDS011;54503;55.784;49.138;2022-08-21T14:50:34;6.75;;;3.35;;
67712;SDS011;54503;55.784;49.138;2022-08-21T14:55:39;8.30;;;3.58;;
67712;SDS011;54503;55.784;49.138;2022-08-21T15:01:05;7.40;;;3.40;;
67712;SDS011;54503;55.784;49.138;2022-08-21T15:06:11;7.70;;;2.97;;
67712;SDS011;54503;55.784;49.138;2022-08-21T15:11:31;7.47;;;2.87;;
67712;SDS011;54503;55.784;49.138;2022-08-21T15:16:55;12.37;;;3.22;;
67712;SDS011;54503;55.784;49.138;2022-08-21T15:22:01;7.67;;;3.08;;
67712;SDS011;54503;55.784;49.138;2022-08-21T15:27:20;11.77;;;4.60;;
67712;SDS011;54503;55.784;49.138;2022-08-21T15:32:39;7.20;;;3.80;;
67712;SDS011;54503;55.784;49.138;2022-08-21T15:37:58;9.35;;;3.10;;
67712;SDS011;54503;55.784;49.138;2022-08-21T15:43:46;8.05;;;3.72;;
67712;SDS011;54503;55.784;49.138;2022-08-21T15:48:51;10.67;;;3.77;;
67712;SDS011;54503;55.784;49.138;2022-08-21T15:53:57;8.90;;;3.40;;
67712;SDS011;54503;55.784;49.138;2022-08-21T15:59:17;11.48;;;3.80;;
67712;SDS011;54503;55.784;49.138;2022-08-21T16:04:37;10.20;;;4.00;;
67712;SDS011;54503;55.784;49.138;2022-08-21T16:09:56;13.93;;;5.05;;
67712;SDS011;54503;55.784;49.138;2022-08-21T16:15:00;16.67;;;4.72;;
67712;SDS011;54503;55.784;49.138;2022-08-21T16:20:31;10.20;;;3.70;;
67712;SDS011;54503;55.784;49.138;2022-08-21T16:25:37;9.77;;;4.03;;
67712;SDS011;54503;55.784;49.138;2022-08-21T16:30:44;10.40;;;4.45;;
67712;SDS011;54503;55.784;49.138;2022-08-21T16:36:05;14.20;;;4.05;;
67712;SDS011;54503;55.784;49.138;2022-08-21T16:41:26;9.60;;;3.33;;
67712;SDS011;54503;55.784;49.138;2022-08-21T16:46:56;10.40;;;4.47;;
67712;SDS011;54503;55.784;49.138;2022-08-21T16:52:02;11.33;;;4.55;;
67712;SDS011;54503;55.784;49.138;2022-08-21T16:57:07;11.75;;;4.72;;
67712;SDS011;54503;55.784;49.138;2022-08-21T17:02:29;11.57;;;4.43;;
67712;SDS011;54503;55.784;49.138;2022-08-21T17:07:47;10.82;;;4.90;;
67712;SDS011;54503;55.784;49.138;2022-08-21T17:13:06;15.48;;;5.97;;
67712;SDS011;54503;55.784;49.138;2022-08-21T17:18:15;20.10;;;7.70;;
67712;SDS011;54503;55.784;49.138;2022-08-21T17:23:32;17.95;;;7.25;;
67712;SDS011;54503;55.784;49.138;2022-08-21T17:28:58;16.20;;;7.10;;
67712;SDS011;54503;55.784;49.138;2022-08-21T17:34:18;19.30;;;7.37;;
67712;SDS011;54503;55.784;49.138;2022-08-21T17:39:37;16.20;;;6.95;;
67712;SDS011;54503;55.784;49.138;2022-08-21T17:44:56;14.47;;;6.42;;
67712;SDS011;54503;55.784;49.138;2022-08-21T17:50:01;13.07;;;5.90;;
67712;SDS011;54503;55.784;49.138;2022-08-21T17:55:32;16.50;;;5.37;;
67712;SDS011;54503;55.784;49.138;2022-08-21T18:00:39;11.80;;;5.00;;
67712;SDS011;54503;55.784;49.138;2022-08-21T18:05:45;13.60;;;4.25;;
67712;SDS011;54503;55.784;49.138;2022-08-21T18:11:04;10.48;;;4.33;;
67712;SDS011;54503;55.784;49.138;2022-08-21T18:16:09;11.00;;;5.13;;
67712;SDS011;54503;55.784;49.138;2022-08-21T18:21:29;10.10;;;4.33;;
67712;SDS011;54503;55.784;49.138;2022-08-21T18:26:56;22.82;;;4.90;;
67712;SDS011;54503;55.784;49.138;2022-08-21T18:32:03;28.00;;;6.22;;
67712;SDS011;54503;55.784;49.138;2022-08-21T18:37:22;14.40;;;5.70;;
67712;SDS011;54503;55.784;49.138;2022-08-21T18:42:28;21.12;;;6.40;;
67712;SDS011;54503;55.784;49.138;2022-08-21T18:47:35;18.20;;;5.67;;
67712;SDS011;54503;55.784;49.138;2022-08-21T18:52:46;11.15;;;4.50;;
67712;SDS011;54503;55.784;49.138;2022-08-21T18:58:05;16.90;;;6.92;;
67712;SDS011;54503;55.784;49.138;2022-08-21T19:03:24;18.07;;;6.43;;
67712;SDS011;54503;55.784;49.138;2022-08-21T19:08:30;18.12;;;8.13;;
67712;SDS011;54503;55.784;49.138;2022-08-21T19:13:35;20.70;;;9.28;;
67712;SDS011;54503;55.784;49.138;2022-08-21T19:18:46;24.53;;;9.00;;
67712;SDS011;54503;55.784;49.138;2022-08-21T19:24:05;22.60;;;9.55;;
67712;SDS011;54503;55.784;49.138;2022-08-21T19:29:24;26.60;;;10.03;;
67712;SDS011;54503;55.784;49.138;2022-08-21T19:34:30;26.05;;;9.95;;
67712;SDS011;54503;55.784;49.138;2022-08-21T19:39:36;28.50;;;9.98;;
67712;SDS011;54503;55.784;49.138;2022-08-21T19:44:42;20.40;;;10.40;;
67712;SDS011;54503;55.784;49.138;2022-08-21T19:50:03;23.17;;;10.03;;
67712;SDS011;54503;55.784;49.138;2022-08-21T19:55:09;20.45;;;9.65;;
67712;SDS011;54503;55.784;49.138;2022-08-21T20:00:28;21.00;;;9.85;;
67712;SDS011;54503;55.784;49.138;2022-08-21T20:05:47;22.10;;;9.30;;
67712;SDS011;54503;55.784;49.138;2022-08-21T20:11:10;22.27;;;10.10;;
67712;SDS011;54503;55.784;49.138;2022-08-21T20:16:17;30.57;;;11.78;;
67712;SDS011;54503;55.784;49.138;2022-08-21T20:21:23;26.50;;;10.93;;
67712;SDS011;54503;55.784;49.138;2022-08-21T20:26:28;22.10;;;10.70;;
67712;SDS011;54503;55.784;49.138;2022-08-21T20:31:46;22.20;;;10.50;;
67712;SDS011;54503;55.784;49.138;2022-08-21T20:36:51;22.50;;;9.93;;
67712;SDS011;54503;55.784;49.138;2022-08-21T20:42:10;18.73;;;10.00;;
67712;SDS011;54503;55.784;49.138;2022-08-21T20:47:15;20.33;;;9.63;;
67712;SDS011;54503;55.784;49.138;2022-08-21T20:52:21;20.35;;;9.38;;
67712;SDS011;54503;55.784;49.138;2022-08-21T21:03:23;17.30;;;8.20;;
67712;SDS011;54503;55.784;49.138;2022-08-21T21:30:32;18.07;;;10.07;;
67712;SDS011;54503;55.784;49.138;2022-08-21T22:14:44;20.75;;;9.60;;
67712;SDS011;54503;55.784;49.138;2022-08-21T22:19:50;24.30;;;9.13;;
67712;SDS011;54503;55.784;49.138;2022-08-21T22:41:48;18.33;;;8.93;;
67712;SDS011;54503;55.784;49.138;2022-08-21T22:52:21;19.87;;;8.75;;
67712;SDS011;54503;55.784;49.138;2022-08-21T22:57:40;19.13;;;8.03;;
67712;SDS011;54503;55.784;49.138;2022-08-21T23:03:06;20.60;;;8.00;;
